createdAt,value
2019-05-13T00:00:53.858Z,6.70
2019-05-13T00:03:23.972Z,6.90
2019-05-13T00:05:53.737Z,6.90
2019-05-13T00:08:24.899Z,6.70
2019-05-13T00:10:54.405Z,6.80
2019-05-13T00:13:23.871Z,6.60
2019-05-13T00:15:54.376Z,6.60
2019-05-13T00:18:23.792Z,6.80
2019-05-13T00:20:54.198Z,6.90
2019-05-13T00:23:23.800Z,6.80
2019-05-13T00:25:54.533Z,6.80
2019-05-13T00:28:23.998Z,6.60
2019-05-13T00:30:54.303Z,6.50
2019-05-13T00:33:24.331Z,6.60
2019-05-13T00:35:53.883Z,6.70
2019-05-13T00:38:24.555Z,6.80
2019-05-13T00:40:54.717Z,6.80
2019-05-13T00:43:24.518Z,6.70
2019-05-13T00:45:53.906Z,6.70
2019-05-13T00:48:23.497Z,6.80
2019-05-13T00:50:54.490Z,6.90
2019-05-13T00:53:24.018Z,7.00
2019-05-13T00:55:53.760Z,6.90
2019-05-13T00:58:24.149Z,6.80
2019-05-13T01:00:54.607Z,6.90
2019-05-13T01:03:27.807Z,6.90
2019-05-13T01:05:55.187Z,7.00
2019-05-13T01:08:25.386Z,7.00
2019-05-13T01:10:54.879Z,7.10
2019-05-13T01:13:24.194Z,7.00
2019-05-13T01:15:54.428Z,7.10
2019-05-13T01:18:23.911Z,7.00
2019-05-13T01:20:53.891Z,7.00
2019-05-13T01:23:24.073Z,7.10
2019-05-13T01:25:54.501Z,7.10
2019-05-13T01:28:24.198Z,7.20
2019-05-13T01:30:54.074Z,7.20
2019-05-13T01:33:23.711Z,7.20
2019-05-13T01:35:53.891Z,7.10
2019-05-13T01:38:24.074Z,7.10
2019-05-13T01:40:54.032Z,7.00
2019-05-13T01:43:24.443Z,7.00
2019-05-13T01:45:53.943Z,7.00
2019-05-13T01:48:24.076Z,7.00
2019-05-13T01:50:53.629Z,6.90
2019-05-13T01:53:24.351Z,6.80
2019-05-13T01:55:53.953Z,6.80
2019-05-13T01:58:23.723Z,6.80
2019-05-13T02:00:55.240Z,6.80
2019-05-13T02:03:24.760Z,6.90
2019-05-13T02:05:54.555Z,6.90
2019-05-13T02:08:24.510Z,7.00
2019-05-13T02:10:55.315Z,6.90
2019-05-13T02:13:25.412Z,7.00
2019-05-13T02:15:55.851Z,7.00
2019-05-13T02:18:25.186Z,6.90
2019-05-13T02:20:55.794Z,7.00
2019-05-13T02:23:25.433Z,6.90
2019-05-13T02:25:55.017Z,6.90
2019-05-13T02:28:25.232Z,6.90
2019-05-13T02:30:56.587Z,6.80
2019-05-13T02:33:25.994Z,6.70
2019-05-13T02:35:55.614Z,6.70
2019-05-13T02:38:30.361Z,6.60
2019-05-13T02:40:55.975Z,6.60
2019-05-13T02:43:25.279Z,6.60
2019-05-13T02:45:54.847Z,6.70
2019-05-13T02:48:24.493Z,6.80
2019-05-13T02:50:54.619Z,6.70
2019-05-13T02:53:24.550Z,6.70
2019-05-13T02:55:54.470Z,6.60
2019-05-13T02:58:25.191Z,6.60
2019-05-13T03:00:54.839Z,6.60
2019-05-13T03:03:24.231Z,6.60
2019-05-13T03:05:54.199Z,6.80
2019-05-13T03:08:39.099Z,6.80
2019-05-13T03:10:54.926Z,6.80
2019-05-13T03:13:24.421Z,6.60
2019-05-13T03:15:57.975Z,6.50
2019-05-13T03:18:27.459Z,6.40
2019-05-13T03:20:56.789Z,6.30
2019-05-13T03:23:26.096Z,6.40
2019-05-13T03:25:55.423Z,6.40
2019-05-13T03:28:24.725Z,6.20
2019-05-13T03:30:56.299Z,6.20
2019-05-13T03:33:27.852Z,6.10
2019-05-13T03:35:56.768Z,6.10
2019-05-13T03:38:26.648Z,6.20
2019-05-13T03:40:57.589Z,6.20
2019-05-13T03:43:32.486Z,6.40
2019-05-13T03:46:03.333Z,6.40
2019-05-13T03:48:35.691Z,6.30
2019-05-13T03:51:05.173Z,6.40
2019-05-13T03:53:34.576Z,6.70
2019-05-13T03:56:04.311Z,6.80
2019-05-13T03:58:33.780Z,6.80
2019-05-13T04:01:03.196Z,7.00
2019-05-13T04:03:33.343Z,7.30
2019-05-13T04:06:03.805Z,7.00
2019-05-13T04:08:33.446Z,6.90
2019-05-13T04:11:03.188Z,6.60
2019-05-13T04:13:33.685Z,6.50
2019-05-13T04:16:04.159Z,6.60
2019-05-13T04:18:33.755Z,6.70
2019-05-13T04:21:03.173Z,6.60
2019-05-13T04:23:32.794Z,6.60
2019-05-13T04:26:03.187Z,6.70
2019-05-13T04:28:33.394Z,6.70
2019-05-13T04:31:03.839Z,6.70
2019-05-13T04:33:33.699Z,6.60
2019-05-13T04:36:03.203Z,6.70
2019-05-13T04:38:33.316Z,6.70
2019-05-13T04:41:03.968Z,6.70
2019-05-13T04:43:34.686Z,6.70
2019-05-13T04:46:04.477Z,6.60
2019-05-13T04:48:34.266Z,6.70
2019-05-13T04:51:03.688Z,6.70
2019-05-13T04:53:33.677Z,6.70
2019-05-13T04:56:03.596Z,6.80
2019-05-13T04:58:33.011Z,6.70
2019-05-13T05:01:23.651Z,6.80
2019-05-13T05:04:28.169Z,6.70
2019-05-13T05:07:16.397Z,6.80
2019-05-13T05:10:15.977Z,7.00
2019-05-13T05:12:43.697Z,7.20
2019-05-13T05:15:38.542Z,7.20
2019-05-13T05:18:52.846Z,7.30
2019-05-13T05:21:47.594Z,7.10
2019-05-13T05:24:47.125Z,7.20
2019-05-13T05:27:43.357Z,7.20
2019-05-13T05:30:42.298Z,7.30
2019-05-13T05:34:11.446Z,7.40
2019-05-13T05:36:52.022Z,7.40
2019-05-13T05:39:27.565Z,7.50
2019-05-13T05:41:58.708Z,7.50
2019-05-13T05:44:32.524Z,7.50
2019-05-13T05:47:03.286Z,7.70
2019-05-13T05:49:32.823Z,7.80
2019-05-13T05:52:05.653Z,8.00
2019-05-13T05:54:38.074Z,8.00
2019-05-13T05:57:08.675Z,8.20
2019-05-13T05:59:38.849Z,8.30
2019-05-13T06:02:09.003Z,8.40
2019-05-13T06:04:38.471Z,8.50
2019-05-13T06:07:08.022Z,8.40
2019-05-13T06:09:37.364Z,8.50
2019-05-13T06:12:06.661Z,8.40
2019-05-13T06:14:36.525Z,8.60
2019-05-13T06:17:05.854Z,8.60
2019-05-13T06:19:35.180Z,8.70
2019-05-13T06:22:04.732Z,8.70
2019-05-13T06:24:34.058Z,8.80
2019-05-13T06:27:03.375Z,8.70
2019-05-13T06:29:32.704Z,8.90
2019-05-13T06:32:18.191Z,9.10
2019-05-13T06:34:33.416Z,9.20
2019-05-13T06:37:02.793Z,9.10
2019-05-13T06:39:32.192Z,9.20
2019-05-13T06:42:02.692Z,9.20
2019-05-13T06:44:32.635Z,9.40
2019-05-13T06:47:02.706Z,9.50
2019-05-13T06:49:32.700Z,9.50
2019-05-13T06:52:02.230Z,9.50
2019-05-13T06:54:32.904Z,9.70
2019-05-13T06:57:05.180Z,9.70
2019-05-13T06:59:33.791Z,9.70
2019-05-13T07:02:03.092Z,9.90
2019-05-13T07:04:32.906Z,9.90
2019-05-13T07:07:12.322Z,10.00
2019-05-13T07:09:33.376Z,10.00
2019-05-13T07:12:03.483Z,10.10
2019-05-13T07:14:33.074Z,10.20
2019-05-13T07:17:02.458Z,10.20
2019-05-13T07:19:32.519Z,10.40
2019-05-13T07:22:03.085Z,10.40
2019-05-13T07:24:32.807Z,10.40
2019-05-13T07:27:02.450Z,10.60
2019-05-13T07:29:32.646Z,10.50
2019-05-13T07:32:02.309Z,10.60
2019-05-13T07:34:33.469Z,10.70
2019-05-13T07:37:03.243Z,10.80
2019-05-13T07:39:33.157Z,10.80
2019-05-13T07:42:05.340Z,10.80
2019-05-13T07:44:33.556Z,10.80
2019-05-13T07:47:03.807Z,10.80
2019-05-13T07:49:33.477Z,10.70
2019-05-13T07:52:02.869Z,10.80
2019-05-13T07:54:33.154Z,11.00
2019-05-13T07:57:02.605Z,11.10
2019-05-13T07:59:32.228Z,11.10
2019-05-13T08:02:02.419Z,11.30
2019-05-13T08:04:33.540Z,11.30
2019-05-13T08:07:03.120Z,11.30
2019-05-13T08:09:32.459Z,11.30
2019-05-13T08:12:09.904Z,11.40
2019-05-13T08:14:33.750Z,11.50
2019-05-13T08:17:03.124Z,11.70
2019-05-13T08:19:32.930Z,11.80
2019-05-13T08:22:02.615Z,11.80
2019-05-13T08:24:32.078Z,11.80
2019-05-13T08:27:02.366Z,11.90
2019-05-13T08:29:32.749Z,11.90
2019-05-13T08:32:03.159Z,12.00
2019-05-13T08:34:33.229Z,12.20
2019-05-13T08:37:03.307Z,12.20
2019-05-13T08:39:38.130Z,12.20
2019-05-13T08:42:15.108Z,12.20
2019-05-13T08:44:35.103Z,12.40
2019-05-13T08:47:04.509Z,12.50
2019-05-13T08:49:33.824Z,12.50
2019-05-13T08:52:03.167Z,12.60
2019-05-13T08:54:33.240Z,12.60
2019-05-13T08:57:03.361Z,12.70
2019-05-13T08:59:32.689Z,12.80
2019-05-13T09:02:03.348Z,12.90
2019-05-13T09:04:32.869Z,13.00
2019-05-13T09:07:02.955Z,13.00
2019-05-13T09:09:32.673Z,13.00
2019-05-13T09:12:02.787Z,13.10
2019-05-13T09:14:32.716Z,13.20
2019-05-13T09:17:02.527Z,13.30
2019-05-13T09:19:32.565Z,13.30
2019-05-13T09:22:02.884Z,13.20
2019-05-13T09:24:37.226Z,13.30
2019-05-13T09:27:03.760Z,13.30
2019-05-13T09:29:33.073Z,13.30
2019-05-13T09:32:03.690Z,13.20
2019-05-13T09:34:33.501Z,13.30
2019-05-13T09:37:03.286Z,13.50
2019-05-13T09:39:32.742Z,13.60
2019-05-13T09:42:03.019Z,13.60
2019-05-13T09:44:33.136Z,13.70
2019-05-13T09:47:02.977Z,13.80
2019-05-13T09:49:33.168Z,13.80
2019-05-13T09:52:02.721Z,13.80
2019-05-13T09:54:33.057Z,13.90
2019-05-13T09:57:02.606Z,14.00
2019-05-13T09:59:32.190Z,14.10
2019-05-13T10:02:03.121Z,14.20
2019-05-13T10:04:32.636Z,14.30
2019-05-13T10:07:02.717Z,14.30
2019-05-13T10:09:32.817Z,14.10
2019-05-13T10:12:03.518Z,14.30
2019-05-13T10:14:33.396Z,14.30
2019-05-13T10:17:06.009Z,14.20
2019-05-13T10:19:34.343Z,14.10
2019-05-13T10:22:03.998Z,14.20
2019-05-13T10:24:33.780Z,14.30
2019-05-13T10:27:03.766Z,14.30
2019-05-13T10:29:33.281Z,14.50
2019-05-13T10:32:03.420Z,14.60
2019-05-13T10:34:34.760Z,14.50
2019-05-13T10:37:04.240Z,14.50
2019-05-13T10:39:34.295Z,14.50
2019-05-13T10:42:04.078Z,14.70
2019-05-13T10:44:33.532Z,14.70
2019-05-13T10:47:02.915Z,14.90
2019-05-13T10:49:33.343Z,14.90
2019-05-13T10:52:03.299Z,14.90
2019-05-13T10:54:32.961Z,15.10
2019-05-13T10:57:03.853Z,15.10
2019-05-13T10:59:33.368Z,15.30
2019-05-13T11:02:02.740Z,15.30
2019-05-13T11:04:32.659Z,15.30
2019-05-13T11:07:03.226Z,15.50
2019-05-13T11:09:32.869Z,15.60
2019-05-13T11:12:02.393Z,15.80
2019-05-13T11:14:32.374Z,16.30
2019-05-13T11:17:01.862Z,17.30
2019-05-13T11:19:36.199Z,17.80
2019-05-13T11:22:03.031Z,18.60
2019-05-13T11:24:32.722Z,19.20
2019-05-13T11:27:02.789Z,20.10
2019-05-13T11:29:32.675Z,21.00
2019-05-13T11:32:02.941Z,20.80
2019-05-13T11:34:33.018Z,20.70
2019-05-13T11:37:03.590Z,20.00
2019-05-13T11:39:33.410Z,19.00
2019-05-13T11:42:02.825Z,18.10
2019-05-13T11:44:32.515Z,18.00
2019-05-13T11:47:02.838Z,17.70
2019-05-13T11:49:32.553Z,17.10
2019-05-13T11:52:02.865Z,17.30
2019-05-13T11:54:32.624Z,17.20
2019-05-13T11:57:06.187Z,17.50
2019-05-13T11:59:36.052Z,18.00
2019-05-13T12:02:05.796Z,18.30
2019-05-13T12:04:35.296Z,18.40
2019-05-13T12:07:04.694Z,18.70
2019-05-13T12:09:34.114Z,18.40
2019-05-13T12:12:03.663Z,18.30
2019-05-13T12:14:44.181Z,18.10
2019-05-13T12:17:04.172Z,18.10
2019-05-13T12:19:33.501Z,18.50
2019-05-13T12:22:03.100Z,18.60
2019-05-13T12:24:32.507Z,18.70
2019-05-13T12:27:03.530Z,18.80
2019-05-13T12:29:32.882Z,18.90
2019-05-13T12:32:03.238Z,18.70
2019-05-13T12:34:40.362Z,18.80
2019-05-13T12:37:04.594Z,18.70
2019-05-13T12:39:33.974Z,18.60
2019-05-13T12:42:03.648Z,18.60
2019-05-13T12:44:33.214Z,18.50
2019-05-13T12:47:03.366Z,18.60
2019-05-13T12:49:36.412Z,18.80
2019-05-13T12:52:04.688Z,19.10
2019-05-13T12:54:34.261Z,18.80
2019-05-13T12:57:03.951Z,18.90
2019-05-13T12:59:33.469Z,19.00
2019-05-13T13:02:03.530Z,18.90
2019-05-13T13:04:33.816Z,19.10
2019-05-13T13:07:03.253Z,19.30
2019-05-13T13:09:33.537Z,19.10
2019-05-13T13:12:03.107Z,19.20
2019-05-13T13:14:39.078Z,19.10
2019-05-13T13:17:04.292Z,19.00
2019-05-13T13:19:34.310Z,18.90
2019-05-13T13:22:07.606Z,19.20
2019-05-13T13:24:34.682Z,19.30
2019-05-13T13:27:04.597Z,19.50
2019-05-13T13:29:34.281Z,19.40
2019-05-13T13:32:03.618Z,19.40
2019-05-13T13:34:33.894Z,19.50
2019-05-13T13:37:05.027Z,19.00
2019-05-13T13:39:34.341Z,18.90
2019-05-13T13:42:05.678Z,19.30
2019-05-13T13:44:35.250Z,19.40
2019-05-13T13:47:04.730Z,19.10
2019-05-13T13:49:35.297Z,19.20
2019-05-13T13:52:04.878Z,19.10
2019-05-13T13:54:34.152Z,19.20
2019-05-13T13:57:03.487Z,19.30
2019-05-13T13:59:35.953Z,19.40
2019-05-13T14:02:05.437Z,19.50
2019-05-13T14:04:35.121Z,19.60
2019-05-13T14:09:35.504Z,19.10
2019-05-13T14:12:04.930Z,19.30
2019-05-13T14:14:34.247Z,19.40
2019-05-13T14:17:03.602Z,19.90
2019-05-13T14:19:32.923Z,19.80
2019-05-13T14:22:02.331Z,19.50
2019-05-13T14:24:33.038Z,19.40
2019-05-13T14:27:03.121Z,19.60
2019-05-13T14:29:40.613Z,19.80
2019-05-13T14:32:03.541Z,20.10
2019-05-13T14:34:32.863Z,19.80
2019-05-13T14:37:02.264Z,19.80
2019-05-13T14:39:31.975Z,19.60
2019-05-13T14:42:02.492Z,19.50
2019-05-13T14:44:32.587Z,19.30
2019-05-13T14:47:01.998Z,19.10
2019-05-13T14:49:31.796Z,19.10
2019-05-13T14:52:01.444Z,19.30
2019-05-13T14:54:31.329Z,19.50
2019-05-13T14:57:02.422Z,19.40
2019-05-13T14:59:31.826Z,19.40
2019-05-13T15:02:01.508Z,19.60
2019-05-13T15:04:32.565Z,19.90
2019-05-13T15:07:02.099Z,20.40
2019-05-13T15:09:31.618Z,20.20
2019-05-13T15:12:02.080Z,20.10
2019-05-13T15:14:31.936Z,20.20
2019-05-13T15:17:06.896Z,20.10
2019-05-13T15:19:32.479Z,19.90
2019-05-13T15:22:02.378Z,19.70
2019-05-13T15:24:32.443Z,19.50
2019-05-13T15:27:01.782Z,20.20
2019-05-13T15:29:31.497Z,20.20
2019-05-13T15:32:02.049Z,20.10
2019-05-13T15:34:32.021Z,20.00
2019-05-13T15:37:02.127Z,19.30
2019-05-13T15:39:31.766Z,19.30
2019-05-13T15:42:02.001Z,19.40
2019-05-13T15:44:32.643Z,19.60
2019-05-13T15:47:07.195Z,19.90
2019-05-13T15:49:33.305Z,19.50
2019-05-13T15:52:04.287Z,19.60
2019-05-13T15:54:33.622Z,19.90
2019-05-13T15:57:03.099Z,19.90
2019-05-13T15:59:35.629Z,20.30
2019-05-13T16:02:04.968Z,20.30
2019-05-13T16:04:48.774Z,20.00
2019-05-13T16:07:05.577Z,20.00
2019-05-13T16:09:34.907Z,20.10
2019-05-13T16:12:04.377Z,19.60
2019-05-13T16:14:33.695Z,19.90
2019-05-13T16:17:03.028Z,19.90
2019-05-13T16:19:32.873Z,20.10
2019-05-13T16:22:02.484Z,20.00
2019-05-13T16:24:32.222Z,19.90
2019-05-13T16:27:02.502Z,19.80
2019-05-13T16:29:33.013Z,19.90
2019-05-13T16:32:02.616Z,20.20
2019-05-13T16:34:32.115Z,20.10
2019-05-13T16:37:02.028Z,20.00
2019-05-13T16:39:32.066Z,19.50
2019-05-13T16:42:01.719Z,18.90
2019-05-13T16:44:31.878Z,19.00
2019-05-13T16:47:01.670Z,18.60
2019-05-13T16:49:33.283Z,18.10
2019-05-13T16:52:02.778Z,17.80
2019-05-13T16:54:32.850Z,17.70
2019-05-13T16:57:02.667Z,17.80
2019-05-13T16:59:31.993Z,18.10
2019-05-13T17:02:01.934Z,17.90
2019-05-13T17:04:32.197Z,18.30
2019-05-13T17:07:01.834Z,18.80
2019-05-13T17:09:32.271Z,18.90
2019-05-13T17:12:01.884Z,18.90
2019-05-13T17:14:32.230Z,18.70
2019-05-13T17:17:01.728Z,18.60
2019-05-13T17:19:31.735Z,18.80
2019-05-13T17:22:02.540Z,18.60
2019-05-13T17:24:32.154Z,18.70
2019-05-13T17:27:02.550Z,18.50
2019-05-13T17:29:32.173Z,18.50
2019-05-13T17:32:02.342Z,18.40
2019-05-13T17:34:32.141Z,18.40
2019-05-13T17:37:02.698Z,18.20
2019-05-13T17:39:32.389Z,18.50
2019-05-13T17:42:01.774Z,18.30
2019-05-13T17:44:31.847Z,18.00
2019-05-13T17:47:02.018Z,17.90
2019-05-13T17:49:32.060Z,17.50
2019-05-13T17:52:02.614Z,17.50
2019-05-13T17:54:32.279Z,17.40
2019-05-13T17:57:02.074Z,17.20
2019-05-13T17:59:31.777Z,17.20
2019-05-13T18:02:02.588Z,17.00
2019-05-13T18:04:32.238Z,16.70
2019-05-13T18:07:07.444Z,16.50
2019-05-13T18:09:36.781Z,16.30
2019-05-13T18:12:06.603Z,16.30
2019-05-13T18:14:36.005Z,16.00
2019-05-13T18:17:05.421Z,16.10
2019-05-13T18:19:34.737Z,16.10
2019-05-13T18:22:04.061Z,16.20
2019-05-13T18:24:33.434Z,15.90
2019-05-13T18:27:02.752Z,15.80
2019-05-13T18:29:32.161Z,15.60
2019-05-13T18:32:02.087Z,15.40
2019-05-13T18:34:32.185Z,15.60
2019-05-13T18:37:02.643Z,15.60
2019-05-13T18:39:32.428Z,15.50
2019-05-13T18:42:01.797Z,15.70
2019-05-13T18:44:31.674Z,15.20
2019-05-13T18:47:01.687Z,15.10
2019-05-13T18:49:31.907Z,14.90
2019-05-13T18:52:01.447Z,14.90
2019-05-13T18:54:31.560Z,14.60
2019-05-13T18:57:01.714Z,14.60
2019-05-13T18:59:32.137Z,14.60
2019-05-13T19:02:01.791Z,14.60
2019-05-13T19:04:31.473Z,14.40
2019-05-13T19:07:02.310Z,14.40
2019-05-13T19:09:31.869Z,14.20
2019-05-13T19:12:01.580Z,14.60
2019-05-13T19:14:31.781Z,14.30
2019-05-13T19:17:01.268Z,14.30
2019-05-13T19:19:31.697Z,14.10
2019-05-13T19:22:02.110Z,14.10
2019-05-13T19:24:31.699Z,13.90
2019-05-13T19:27:01.682Z,14.10
2019-05-13T19:29:31.820Z,13.90
2019-05-13T19:32:01.928Z,13.70
2019-05-13T19:34:32.269Z,13.60
2019-05-13T19:37:02.499Z,13.60
2019-05-13T19:39:31.993Z,13.50
2019-05-13T19:42:03.472Z,13.50
2019-05-13T19:44:32.799Z,13.40
2019-05-13T19:47:02.207Z,13.30
2019-05-13T19:49:36.663Z,13.40
2019-05-13T19:52:02.618Z,13.50
2019-05-13T19:54:31.940Z,13.30
2019-05-13T19:57:01.556Z,13.20
2019-05-13T19:59:32.230Z,13.20
2019-05-13T20:02:01.702Z,13.30
2019-05-13T20:04:31.411Z,13.20
2019-05-13T20:07:00.967Z,13.20
2019-05-13T20:09:32.189Z,13.20
2019-05-13T20:12:02.052Z,13.00
2019-05-13T20:14:31.543Z,13.20
2019-05-13T20:17:01.596Z,13.00
2019-05-13T20:19:46.190Z,13.10
2019-05-13T20:22:02.481Z,12.90
2019-05-13T20:24:31.863Z,12.70
2019-05-13T20:27:01.685Z,12.90
2019-05-13T20:29:33.589Z,12.80
2019-05-13T20:32:02.950Z,12.70
2019-05-13T20:34:33.295Z,12.60
2019-05-13T20:37:02.643Z,12.70
2019-05-13T20:39:32.248Z,12.50
2019-05-13T20:42:01.875Z,12.50
2019-05-13T20:44:31.562Z,12.40
2019-05-13T20:47:01.534Z,12.30
2019-05-13T20:49:31.327Z,12.30
2019-05-13T20:52:00.969Z,12.10
2019-05-13T20:54:31.405Z,12.20
2019-05-13T20:57:02.049Z,12.30
2019-05-13T20:59:32.151Z,12.20
2019-05-13T21:02:02.400Z,12.10
2019-05-13T21:04:32.305Z,11.80
2019-05-13T21:07:02.257Z,11.50
2019-05-13T21:09:31.811Z,11.20
2019-05-13T21:12:01.781Z,11.10
2019-05-13T21:14:32.164Z,11.10
2019-05-13T21:17:01.604Z,11.00
2019-05-13T21:19:39.285Z,10.90
2019-05-13T21:22:02.016Z,11.00
2019-05-13T21:24:31.886Z,10.80
2019-05-13T21:27:01.969Z,10.80
2019-05-13T21:29:32.304Z,10.60
2019-05-13T21:32:01.748Z,10.50
2019-05-13T21:34:31.586Z,10.50
2019-05-13T21:37:02.312Z,10.40
2019-05-13T21:39:32.101Z,10.20
2019-05-13T21:42:02.319Z,10.20
2019-05-13T21:44:32.675Z,10.30
2019-05-13T21:47:02.379Z,10.50
2019-05-13T21:49:32.125Z,10.30
2019-05-13T21:52:01.539Z,10.10
2019-05-13T21:54:33.255Z,10.10
2019-05-13T21:57:02.343Z,10.10
2019-05-13T21:59:33.590Z,9.80
2019-05-13T22:02:03.233Z,9.60
2019-05-13T22:04:33.996Z,9.50
2019-05-13T22:07:03.371Z,9.50
2019-05-13T22:09:32.695Z,9.40
2019-05-13T22:12:02.160Z,9.40
2019-05-13T22:14:32.083Z,9.30
2019-05-13T22:17:01.863Z,9.30
2019-05-13T22:19:31.715Z,9.00
2019-05-13T22:22:02.484Z,9.00
2019-05-13T22:24:31.894Z,9.00
2019-05-13T22:27:01.994Z,8.90
2019-05-13T22:29:32.067Z,8.80
2019-05-13T22:32:02.112Z,8.80
2019-05-13T22:34:32.043Z,8.90
2019-05-13T22:37:02.480Z,8.90
2019-05-13T22:39:34.540Z,8.90
2019-05-13T22:42:03.049Z,9.00
2019-05-13T22:44:32.663Z,8.80
2019-05-13T22:47:02.570Z,8.70
2019-05-13T22:49:32.011Z,8.50
2019-05-13T22:52:01.316Z,8.60
2019-05-13T22:54:31.904Z,8.50
2019-05-13T22:57:01.495Z,8.50
2019-05-13T22:59:32.267Z,8.40
2019-05-13T23:02:01.633Z,8.40
2019-05-13T23:04:31.518Z,8.40
2019-05-13T23:07:01.369Z,8.40
2019-05-13T23:09:32.218Z,8.30
2019-05-13T23:12:01.793Z,8.20
2019-05-13T23:14:31.129Z,8.00
2019-05-13T23:17:02.209Z,8.20
2019-05-13T23:19:32.360Z,8.00
2019-05-13T23:22:01.862Z,8.00
2019-05-13T23:24:31.344Z,8.00
2019-05-13T23:27:02.125Z,8.00
2019-05-13T23:29:32.013Z,7.60
2019-05-13T23:32:01.601Z,7.60
2019-05-13T23:34:31.850Z,7.50
2019-05-13T23:37:01.299Z,7.80
2019-05-13T23:39:32.149Z,7.50
2019-05-13T23:42:01.572Z,7.40
2019-05-13T23:44:32.235Z,7.40
2019-05-13T23:47:01.637Z,7.50
2019-05-13T23:49:31.646Z,7.40
2019-05-13T23:52:02.529Z,7.20
2019-05-13T23:54:31.947Z,7.30
2019-05-13T23:57:01.325Z,7.30
2019-05-13T23:59:31.214Z,7.20
